sensor_id;sensor_type;location;lat;lon;timestamp;temperature;humidity
9849;DHT22;4963;51.444;6.528;2023-09-12T00:00:14;21.80;99.90
9849;DHT22;4963;51.444;6.528;2023-09-12T00:02:41;21.70;99.90
9849;DHT22;4963;51.444;6.528;2023-09-12T00:05:08;21.70;99.90
9849;DHT22;4963;51.444;6.528;2023-09-12T00:07:35;21.70;99.90
9849;DHT22;4963;51.444;6.528;2023-09-12T00:10:02;21.80;99.90
9849;DHT22;4963;51.444;6.528;2023-09-12T00:12:29;21.90;99.90
9849;DHT22;4963;51.444;6.528;2023-09-12T00:14:57;21.80;99.90
9849;DHT22;4963;51.444;6.528;2023-09-12T00:17:24;21.80;99.90
9849;DHT22;4963;51.444;6.528;2023-09-12T00:19:52;21.70;99.90
9849;DHT22;4963;51.444;6.528;2023-09-12T00:22:19;21.70;99.90
9849;DHT22;4963;51.444;6.528;2023-09-12T00:24:46;21.70;99.90
9849;DHT22;4963;51.444;6.528;2023-09-12T00:27:12;21.70;99.90
9849;DHT22;4963;51.444;6.528;2023-09-12T00:29:39;21.60;99.90
9849;DHT22;4963;51.444;6.528;2023-09-12T00:32:07;21.50;99.90
9849;DHT22;4963;51.444;6.528;2023-09-12T00:34:34;21.50;99.90
9849;DHT22;4963;51.444;6.528;2023-09-12T00:37:01;21.50;99.90
9849;DHT22;4963;51.444;6.528;2023-09-12T00:39:29;21.60;99.90
9849;DHT22;4963;51.444;6.528;2023-09-12T00:41:56;21.60;99.90
9849;DHT22;4963;51.444;6.528;2023-09-12T00:44:23;21.60;99.90
9849;DHT22;4963;51.444;6.528;2023-09-12T00:46:50;21.50;99.90
9849;DHT22;4963;51.444;6.528;2023-09-12T00:49:21;21.50;99.90
9849;DHT22;4963;51.444;6.528;2023-09-12T00:51:49;21.50;99.90
9849;DHT22;4963;51.444;6.528;2023-09-12T00:54:17;21.50;99.90
9849;DHT22;4963;51.444;6.528;2023-09-12T00:56:44;21.40;99.90
9849;DHT22;4963;51.444;6.528;2023-09-12T00:59:11;21.40;99.90
9849;DHT22;4963;51.444;6.528;2023-09-12T01:01:38;21.40;99.90
9849;DHT22;4963;51.444;6.528;2023-09-12T01:04:05;21.40;99.90
9849;DHT22;4963;51.444;6.528;2023-09-12T01:06:34;21.40;99.90
9849;DHT22;4963;51.444;6.528;2023-09-12T01:09:01;21.30;99.90
9849;DHT22;4963;51.444;6.528;2023-09-12T01:11:28;21.20;99.90
9849;DHT22;4963;51.444;6.528;2023-09-12T01:13:55;21.20;99.90
9849;DHT22;4963;51.444;6.528;2023-09-12T01:16:22;21.30;99.90
9849;DHT22;4963;51.444;6.528;2023-09-12T01:18:49;21.30;99.90
9849;DHT22;4963;51.444;6.528;2023-09-12T01:21:40;21.30;99.90
9849;DHT22;4963;51.444;6.528;2023-09-12T01:27:22;21.30;99.90
9849;DHT22;4963;51.444;6.528;2023-09-12T01:29:56;21.30;99.90
9849;DHT22;4963;51.444;6.528;2023-09-12T01:32:23;21.30;99.90
9849;DHT22;4963;51.444;6.528;2023-09-12T01:34:50;21.20;99.90
9849;DHT22;4963;51.444;6.528;2023-09-12T01:37:17;21.00;99.90
9849;DHT22;4963;51.444;6.528;2023-09-12T01:39:43;20.80;99.90
9849;DHT22;4963;51.444;6.528;2023-09-12T01:42:13;20.90;99.90
9849;DHT22;4963;51.444;6.528;2023-09-12T01:44:43;20.90;99.90
9849;DHT22;4963;51.444;6.528;2023-09-12T01:47:11;21.00;99.90
9849;DHT22;4963;51.444;6.528;2023-09-12T01:49:39;21.10;99.90
9849;DHT22;4963;51.444;6.528;2023-09-12T01:52:07;21.10;99.90
9849;DHT22;4963;51.444;6.528;2023-09-12T01:54:34;21.20;99.90
9849;DHT22;4963;51.444;6.528;2023-09-12T01:57:04;21.10;99.90
9849;DHT22;4963;51.444;6.528;2023-09-12T01:59:31;21.00;99.90
9849;DHT22;4963;51.444;6.528;2023-09-12T02:02:00;20.80;99.90
9849;DHT22;4963;51.444;6.528;2023-09-12T02:04:27;20.70;99.90
9849;DHT22;4963;51.444;6.528;2023-09-12T02:06:54;20.60;99.90
9849;DHT22;4963;51.444;6.528;2023-09-12T02:09:21;20.60;99.90
9849;DHT22;4963;51.444;6.528;2023-09-12T02:11:49;20.70;99.90
9849;DHT22;4963;51.444;6.528;2023-09-12T02:14:15;20.80;99.90
9849;DHT22;4963;51.444;6.528;2023-09-12T02:16:43;20.80;99.90
9849;DHT22;4963;51.444;6.528;2023-09-12T02:19:11;20.70;99.90
9849;DHT22;4963;51.444;6.528;2023-09-12T02:21:38;20.60;99.90
9849;DHT22;4963;51.444;6.528;2023-09-12T02:24:06;20.60;99.90
9849;DHT22;4963;51.444;6.528;2023-09-12T02:26:33;20.60;99.90
9849;DHT22;4963;51.444;6.528;2023-09-12T02:29:02;20.60;99.90
9849;DHT22;4963;51.444;6.528;2023-09-12T02:31:29;20.70;99.90
9849;DHT22;4963;51.444;6.528;2023-09-12T02:33:56;20.80;99.90
9849;DHT22;4963;51.444;6.528;2023-09-12T02:36:24;20.70;99.90
9849;DHT22;4963;51.444;6.528;2023-09-12T02:38:51;20.60;99.90
9849;DHT22;4963;51.444;6.528;2023-09-12T02:41:17;20.70;99.90
9849;DHT22;4963;51.444;6.528;2023-09-12T02:43:44;20.70;99.90
9849;DHT22;4963;51.444;6.528;2023-09-12T02:46:11;20.60;99.90
9849;DHT22;4963;51.444;6.528;2023-09-12T02:48:38;20.50;99.90
9849;DHT22;4963;51.444;6.528;2023-09-12T02:51:05;20.40;99.90
9849;DHT22;4963;51.444;6.528;2023-09-12T02:53:33;20.20;99.90
9849;DHT22;4963;51.444;6.528;2023-09-12T02:56:00;20.20;99.90
9849;DHT22;4963;51.444;6.528;2023-09-12T02:58:27;20.30;99.90
9849;DHT22;4963;51.444;6.528;2023-09-12T03:00:54;20.40;99.90
9849;DHT22;4963;51.444;6.528;2023-09-12T03:03:20;20.40;99.90
9849;DHT22;4963;51.444;6.528;2023-09-12T03:05:47;20.50;99.90
9849;DHT22;4963;51.444;6.528;2023-09-12T03:08:14;20.60;99.90
9849;DHT22;4963;51.444;6.528;2023-09-12T03:10:42;20.60;99.90
9849;DHT22;4963;51.444;6.528;2023-09-12T03:13:11;20.60;99.90
9849;DHT22;4963;51.444;6.528;2023-09-12T03:15:38;20.60;99.90
9849;DHT22;4963;51.444;6.528;2023-09-12T03:18:09;20.60;99.90
9849;DHT22;4963;51.444;6.528;2023-09-12T03:20:38;20.60;99.90
9849;DHT22;4963;51.444;6.528;2023-09-12T03:23:05;20.60;99.90
9849;DHT22;4963;51.444;6.528;2023-09-12T03:25:35;20.60;99.90
9849;DHT22;4963;51.444;6.528;2023-09-12T03:28:04;20.60;99.90
9849;DHT22;4963;51.444;6.528;2023-09-12T03:30:32;20.60;99.90
9849;DHT22;4963;51.444;6.528;2023-09-12T03:32:59;20.70;99.90
9849;DHT22;4963;51.444;6.528;2023-09-12T03:35:28;20.70;99.90
9849;DHT22;4963;51.444;6.528;2023-09-12T03:37:55;20.60;99.90
9849;DHT22;4963;51.444;6.528;2023-09-12T03:40:22;20.60;99.90
9849;DHT22;4963;51.444;6.528;2023-09-12T03:42:48;20.60;99.90
9849;DHT22;4963;51.444;6.528;2023-09-12T03:45:17;20.50;99.90
9849;DHT22;4963;51.444;6.528;2023-09-12T03:47:44;20.50;99.90
9849;DHT22;4963;51.444;6.528;2023-09-12T03:50:12;20.40;99.90
9849;DHT22;4963;51.444;6.528;2023-09-12T03:52:39;20.50;99.90
9849;DHT22;4963;51.444;6.528;2023-09-12T03:55:06;20.50;99.90
9849;DHT22;4963;51.444;6.528;2023-09-12T03:57:33;20.50;99.90
9849;DHT22;4963;51.444;6.528;2023-09-12T04:00:00;20.50;99.90
9849;DHT22;4963;51.444;6.528;2023-09-12T04:02:31;20.50;99.90
9849;DHT22;4963;51.444;6.528;2023-09-12T04:04:57;20.50;99.90
9849;DHT22;4963;51.444;6.528;2023-09-12T04:07:25;20.50;99.90
9849;DHT22;4963;51.444;6.528;2023-09-12T04:09:52;20.50;99.90
9849;DHT22;4963;51.444;6.528;2023-09-12T04:12:18;20.50;99.90
9849;DHT22;4963;51.444;6.528;2023-09-12T04:14:45;20.40;99.90
9849;DHT22;4963;51.444;6.528;2023-09-12T04:17:12;20.40;99.90
9849;DHT22;4963;51.444;6.528;2023-09-12T04:19:40;20.40;99.90
9849;DHT22;4963;51.444;6.528;2023-09-12T04:22:07;20.40;99.90
9849;DHT22;4963;51.444;6.528;2023-09-12T04:24:34;20.50;99.90
9849;DHT22;4963;51.444;6.528;2023-09-12T04:27:01;20.60;99.90
9849;DHT22;4963;51.444;6.528;2023-09-12T04:29:28;20.60;99.90
9849;DHT22;4963;51.444;6.528;2023-09-12T04:31:55;20.60;99.90
9849;DHT22;4963;51.444;6.528;2023-09-12T04:34:25;20.60;99.90
9849;DHT22;4963;51.444;6.528;2023-09-12T04:36:53;20.60;99.90
9849;DHT22;4963;51.444;6.528;2023-09-12T04:39:20;20.60;99.90
9849;DHT22;4963;51.444;6.528;2023-09-12T04:41:47;20.60;99.90
9849;DHT22;4963;51.444;6.528;2023-09-12T04:44:14;20.60;99.90
9849;DHT22;4963;51.444;6.528;2023-09-12T04:46:41;20.60;99.90
9849;DHT22;4963;51.444;6.528;2023-09-12T04:49:08;20.60;99.90
9849;DHT22;4963;51.444;6.528;2023-09-12T04:51:34;20.60;99.90
9849;DHT22;4963;51.444;6.528;2023-09-12T04:54:05;20.60;99.90
9849;DHT22;4963;51.444;6.528;2023-09-12T04:56:32;20.70;99.90
9849;DHT22;4963;51.444;6.528;2023-09-12T04:58:59;20.70;99.90
9849;DHT22;4963;51.444;6.528;2023-09-12T05:01:26;20.70;99.90
9849;DHT22;4963;51.444;6.528;2023-09-12T05:03:53;20.60;99.90
9849;DHT22;4963;51.444;6.528;2023-09-12T05:06:20;20.60;99.90
9849;DHT22;4963;51.444;6.528;2023-09-12T05:08:46;20.60;99.90
9849;DHT22;4963;51.444;6.528;2023-09-12T05:11:15;20.60;99.90
9849;DHT22;4963;51.444;6.528;2023-09-12T05:13:42;20.60;99.90
9849;DHT22;4963;51.444;6.528;2023-09-12T05:16:08;20.50;99.90
9849;DHT22;4963;51.444;6.528;2023-09-12T05:18:35;20.40;99.90
9849;DHT22;4963;51.444;6.528;2023-09-12T05:21:02;20.50;99.90
9849;DHT22;4963;51.444;6.528;2023-09-12T05:23:29;20.60;99.90
9849;DHT22;4963;51.444;6.528;2023-09-12T05:25:56;20.60;99.90
9849;DHT22;4963;51.444;6.528;2023-09-12T05:28:24;20.60;99.90
9849;DHT22;4963;51.444;6.528;2023-09-12T05:30:51;20.60;99.90
9849;DHT22;4963;51.444;6.528;2023-09-12T05:33:18;20.50;99.90
9849;DHT22;4963;51.444;6.528;2023-09-12T05:35:45;20.50;99.90
9849;DHT22;4963;51.444;6.528;2023-09-12T05:38:12;20.50;99.90
9849;DHT22;4963;51.444;6.528;2023-09-12T05:40:39;20.60;99.90
9849;DHT22;4963;51.444;6.528;2023-09-12T05:43:06;20.50;99.90
9849;DHT22;4963;51.444;6.528;2023-09-12T05:45:34;20.60;99.90
9849;DHT22;4963;51.444;6.528;2023-09-12T05:48:01;20.50;99.90
9849;DHT22;4963;51.444;6.528;2023-09-12T05:50:28;20.40;99.90
9849;DHT22;4963;51.444;6.528;2023-09-12T05:52:55;20.20;99.90
9849;DHT22;4963;51.444;6.528;2023-09-12T05:55:22;20.10;99.90
9849;DHT22;4963;51.444;6.528;2023-09-12T05:57:49;20.10;99.90
9849;DHT22;4963;51.444;6.528;2023-09-12T06:00:18;20.20;99.90
9849;DHT22;4963;51.444;6.528;2023-09-12T06:02:47;20.30;99.90
9849;DHT22;4963;51.444;6.528;2023-09-12T06:05:14;20.30;99.90
9849;DHT22;4963;51.444;6.528;2023-09-12T06:07:41;20.30;99.90
9849;DHT22;4963;51.444;6.528;2023-09-12T06:10:08;20.20;99.90
9849;DHT22;4963;51.444;6.528;2023-09-12T06:12:35;20.10;99.90
9849;DHT22;4963;51.444;6.528;2023-09-12T06:15:03;20.20;99.90
9849;DHT22;4963;51.444;6.528;2023-09-12T06:17:30;20.20;99.90
9849;DHT22;4963;51.444;6.528;2023-09-12T06:19:58;20.20;99.90
9849;DHT22;4963;51.444;6.528;2023-09-12T06:22:25;20.20;99.90
9849;DHT22;4963;51.444;6.528;2023-09-12T06:24:53;20.10;99.90
9849;DHT22;4963;51.444;6.528;2023-09-12T06:27:19;19.90;99.90
9849;DHT22;4963;51.444;6.528;2023-09-12T06:29:46;19.80;99.90
9849;DHT22;4963;51.444;6.528;2023-09-12T06:32:13;19.80;99.90
9849;DHT22;4963;51.444;6.528;2023-09-12T06:34:40;19.80;99.90
9849;DHT22;4963;51.444;6.528;2023-09-12T06:37:10;19.80;99.90
9849;DHT22;4963;51.444;6.528;2023-09-12T06:39:37;19.80;99.90
9849;DHT22;4963;51.444;6.528;2023-09-12T06:42:04;19.80;99.90
9849;DHT22;4963;51.444;6.528;2023-09-12T06:44:31;19.90;99.90
9849;DHT22;4963;51.444;6.528;2023-09-12T06:46:58;20.00;99.90
9849;DHT22;4963;51.444;6.528;2023-09-12T06:49:25;20.00;99.90
9849;DHT22;4963;51.444;6.528;2023-09-12T06:51:52;20.00;99.90
9849;DHT22;4963;51.444;6.528;2023-09-12T06:54:20;20.00;99.90
9849;DHT22;4963;51.444;6.528;2023-09-12T06:56:47;20.10;99.90
9849;DHT22;4963;51.444;6.528;2023-09-12T06:59:14;20.00;99.90
9849;DHT22;4963;51.444;6.528;2023-09-12T07:01:40;20.00;99.90
9849;DHT22;4963;51.444;6.528;2023-09-12T07:04:09;20.10;99.90
9849;DHT22;4963;51.444;6.528;2023-09-12T07:06:35;20.10;99.90
9849;DHT22;4963;51.444;6.528;2023-09-12T07:09:02;20.10;99.90
9849;DHT22;4963;51.444;6.528;2023-09-12T07:11:31;20.00;99.90
9849;DHT22;4963;51.444;6.528;2023-09-12T07:13:58;19.90;99.90
9849;DHT22;4963;51.444;6.528;2023-09-12T07:16:25;19.80;99.90
9849;DHT22;4963;51.444;6.528;2023-09-12T07:18:52;19.80;99.90
9849;DHT22;4963;51.444;6.528;2023-09-12T07:21:19;19.80;99.90
9849;DHT22;4963;51.444;6.528;2023-09-12T07:23:48;19.80;99.90
9849;DHT22;4963;51.444;6.528;2023-09-12T07:26:15;19.90;99.90
9849;DHT22;4963;51.444;6.528;2023-09-12T07:28:43;19.90;99.90
9849;DHT22;4963;51.444;6.528;2023-09-12T07:31:10;19.90;99.90
9849;DHT22;4963;51.444;6.528;2023-09-12T07:33:37;19.80;99.90
9849;DHT22;4963;51.444;6.528;2023-09-12T07:36:04;19.80;99.90
9849;DHT22;4963;51.444;6.528;2023-09-12T07:38:31;19.90;99.90
9849;DHT22;4963;51.444;6.528;2023-09-12T07:41:00;19.90;99.90
9849;DHT22;4963;51.444;6.528;2023-09-12T07:43:28;20.00;99.90
9849;DHT22;4963;51.444;6.528;2023-09-12T07:45:57;20.00;99.90
9849;DHT22;4963;51.444;6.528;2023-09-12T07:48:24;20.00;99.90
9849;DHT22;4963;51.444;6.528;2023-09-12T07:50:50;20.00;99.90
9849;DHT22;4963;51.444;6.528;2023-09-12T07:53:18;20.00;99.90
9849;DHT22;4963;51.444;6.528;2023-09-12T07:55:44;20.00;99.90
9849;DHT22;4963;51.444;6.528;2023-09-12T07:58:12;20.10;99.90
9849;DHT22;4963;51.444;6.528;2023-09-12T08:00:39;20.10;99.90
9849;DHT22;4963;51.444;6.528;2023-09-12T08:03:08;20.10;99.90
9849;DHT22;4963;51.444;6.528;2023-09-12T08:05:35;20.20;99.90
9849;DHT22;4963;51.444;6.528;2023-09-12T08:08:02;20.20;99.90
9849;DHT22;4963;51.444;6.528;2023-09-12T08:10:29;20.20;99.90
9849;DHT22;4963;51.444;6.528;2023-09-12T08:12:56;20.20;99.90
9849;DHT22;4963;51.444;6.528;2023-09-12T08:15:23;20.20;99.90
9849;DHT22;4963;51.444;6.528;2023-09-12T08:17:50;20.20;99.90
9849;DHT22;4963;51.444;6.528;2023-09-12T08:20:20;20.40;99.90
9849;DHT22;4963;51.444;6.528;2023-09-12T08:22:47;20.70;99.90
9849;DHT22;4963;51.444;6.528;2023-09-12T08:25:15;21.10;99.90
9849;DHT22;4963;51.444;6.528;2023-09-12T08:27:42;21.50;99.90
9849;DHT22;4963;51.444;6.528;2023-09-12T08:30:10;21.90;99.90
9849;DHT22;4963;51.444;6.528;2023-09-12T08:32:38;22.20;99.90
9849;DHT22;4963;51.444;6.528;2023-09-12T08:35:09;22.50;99.90
9849;DHT22;4963;51.444;6.528;2023-09-12T08:37:39;22.80;99.90
9849;DHT22;4963;51.444;6.528;2023-09-12T08:40:07;23.20;99.90
9849;DHT22;4963;51.444;6.528;2023-09-12T08:42:39;23.60;99.90
9849;DHT22;4963;51.444;6.528;2023-09-12T08:45:12;23.80;99.90
9849;DHT22;4963;51.444;6.528;2023-09-12T08:47:41;24.00;99.90
9849;DHT22;4963;51.444;6.528;2023-09-12T08:50:10;24.00;99.90
9849;DHT22;4963;51.444;6.528;2023-09-12T08:52:40;24.10;99.90
9849;DHT22;4963;51.444;6.528;2023-09-12T08:55:08;24.00;99.90
9849;DHT22;4963;51.444;6.528;2023-09-12T08:57:36;24.10;99.90
9849;DHT22;4963;51.444;6.528;2023-09-12T09:00:05;24.10;99.90
9849;DHT22;4963;51.444;6.528;2023-09-12T09:02:34;24.20;99.90
9849;DHT22;4963;51.444;6.528;2023-09-12T09:05:02;24.20;99.90
9849;DHT22;4963;51.444;6.528;2023-09-12T09:07:32;24.20;99.90
9849;DHT22;4963;51.444;6.528;2023-09-12T09:10:01;24.20;99.90
9849;DHT22;4963;51.444;6.528;2023-09-12T09:12:29;24.20;99.90
9849;DHT22;4963;51.444;6.528;2023-09-12T09:14:56;24.10;99.90
9849;DHT22;4963;51.444;6.528;2023-09-12T09:17:23;24.00;99.90
9849;DHT22;4963;51.444;6.528;2023-09-12T09:19:50;24.00;99.90
9849;DHT22;4963;51.444;6.528;2023-09-12T09:22:17;23.90;99.90
9849;DHT22;4963;51.444;6.528;2023-09-12T09:24:44;23.90;99.90
9849;DHT22;4963;51.444;6.528;2023-09-12T09:27:12;24.00;99.90
9849;DHT22;4963;51.444;6.528;2023-09-12T09:29:58;23.90;99.90
9849;DHT22;4963;51.444;6.528;2023-09-12T09:32:25;23.80;99.90
9849;DHT22;4963;51.444;6.528;2023-09-12T09:34:52;23.70;99.90
9849;DHT22;4963;51.444;6.528;2023-09-12T09:37:19;23.50;99.90
9849;DHT22;4963;51.444;6.528;2023-09-12T09:39:48;23.40;99.90
9849;DHT22;4963;51.444;6.528;2023-09-12T09:42:19;23.30;99.90
9849;DHT22;4963;51.444;6.528;2023-09-12T09:44:47;23.40;99.90
9849;DHT22;4963;51.444;6.528;2023-09-12T09:47:15;23.40;99.90
9849;DHT22;4963;51.444;6.528;2023-09-12T09:49:45;23.50;99.90
9849;DHT22;4963;51.444;6.528;2023-09-12T09:52:12;23.50;99.90
9849;DHT22;4963;51.444;6.528;2023-09-12T09:54:43;23.60;99.90
9849;DHT22;4963;51.444;6.528;2023-09-12T09:57:10;23.60;99.90
9849;DHT22;4963;51.444;6.528;2023-09-12T09:59:39;23.70;99.90
9849;DHT22;4963;51.444;6.528;2023-09-12T10:02:09;23.70;99.90
9849;DHT22;4963;51.444;6.528;2023-09-12T10:04:38;23.80;99.90
9849;DHT22;4963;51.444;6.528;2023-09-12T10:07:08;23.80;99.90
9849;DHT22;4963;51.444;6.528;2023-09-12T10:09:36;23.80;99.90
9849;DHT22;4963;51.444;6.528;2023-09-12T10:12:04;23.70;99.90
9849;DHT22;4963;51.444;6.528;2023-09-12T10:14:31;23.70;99.90
9849;DHT22;4963;51.444;6.528;2023-09-12T10:17:02;23.70;99.90
9849;DHT22;4963;51.444;6.528;2023-09-12T10:19:34;23.70;99.90
9849;DHT22;4963;51.444;6.528;2023-09-12T10:22:09;23.70;99.90
9849;DHT22;4963;51.444;6.528;2023-09-12T10:24:36;23.80;99.90
9849;DHT22;4963;51.444;6.528;2023-09-12T10:27:05;23.90;99.90
9849;DHT22;4963;51.444;6.528;2023-09-12T10:29:33;23.80;99.90
9849;DHT22;4963;51.444;6.528;2023-09-12T10:32:02;23.70;99.90
9849;DHT22;4963;51.444;6.528;2023-09-12T10:34:30;23.70;99.90
9849;DHT22;4963;51.444;6.528;2023-09-12T10:36:58;23.70;99.90
9849;DHT22;4963;51.444;6.528;2023-09-12T10:39:27;23.80;99.90
9849;DHT22;4963;51.444;6.528;2023-09-12T10:41:54;23.80;99.90
9849;DHT22;4963;51.444;6.528;2023-09-12T10:44:21;23.80;99.90
9849;DHT22;4963;51.444;6.528;2023-09-12T10:46:50;23.80;99.90
9849;DHT22;4963;51.444;6.528;2023-09-12T10:49:20;24.00;99.90
9849;DHT22;4963;51.444;6.528;2023-09-12T10:51:47;24.10;99.90
9849;DHT22;4963;51.444;6.528;2023-09-12T10:54:15;24.10;99.90
9849;DHT22;4963;51.444;6.528;2023-09-12T10:56:42;24.10;99.90
9849;DHT22;4963;51.444;6.528;2023-09-12T10:59:12;24.10;99.90
9849;DHT22;4963;51.444;6.528;2023-09-12T11:01:41;24.10;99.90
9849;DHT22;4963;51.444;6.528;2023-09-12T11:04:32;24.10;99.90
9849;DHT22;4963;51.444;6.528;2023-09-12T11:07:30;24.10;99.90
9849;DHT22;4963;51.444;6.528;2023-09-12T11:10:17;24.00;99.90
9849;DHT22;4963;51.444;6.528;2023-09-12T11:12:45;23.90;99.90
9849;DHT22;4963;51.444;6.528;2023-09-12T11:15:13;23.80;99.90
9849;DHT22;4963;51.444;6.528;2023-09-12T11:17:41;23.90;99.90
9849;DHT22;4963;51.444;6.528;2023-09-12T11:20:11;23.80;99.90
9849;DHT22;4963;51.444;6.528;2023-09-12T11:22:40;23.70;99.90
9849;DHT22;4963;51.444;6.528;2023-09-12T11:25:17;23.70;99.90
9849;DHT22;4963;51.444;6.528;2023-09-12T11:27:46;23.70;99.90
9849;DHT22;4963;51.444;6.528;2023-09-12T11:30:28;23.80;99.90
9849;DHT22;4963;51.444;6.528;2023-09-12T11:32:56;23.90;99.90
9849;DHT22;4963;51.444;6.528;2023-09-12T11:35:27;24.00;99.90
9849;DHT22;4963;51.444;6.528;2023-09-12T11:37:55;24.00;99.90
9849;DHT22;4963;51.444;6.528;2023-09-12T11:40:23;24.10;99.90
9849;DHT22;4963;51.444;6.528;2023-09-12T11:42:51;24.10;99.90
9849;DHT22;4963;51.444;6.528;2023-09-12T11:45:19;24.10;99.90
9849;DHT22;4963;51.444;6.528;2023-09-12T11:47:47;24.10;99.90
9849;DHT22;4963;51.444;6.528;2023-09-12T11:50:28;24.10;99.90
9849;DHT22;4963;51.444;6.528;2023-09-12T11:53:03;24.10;99.90
9849;DHT22;4963;51.444;6.528;2023-09-12T11:55:32;24.20;99.90
9849;DHT22;4963;51.444;6.528;2023-09-12T11:57:59;24.20;99.90
9849;DHT22;4963;51.444;6.528;2023-09-12T12:00:26;24.10;99.90
9849;DHT22;4963;51.444;6.528;2023-09-12T12:02:54;24.00;99.90
9849;DHT22;4963;51.444;6.528;2023-09-12T12:05:22;23.90;99.90
9849;DHT22;4963;51.444;6.528;2023-09-12T12:07:50;23.80;99.90
9849;DHT22;4963;51.444;6.528;2023-09-12T12:10:18;23.80;99.90
9849;DHT22;4963;51.444;6.528;2023-09-12T12:12:45;23.70;99.90
9849;DHT22;4963;51.444;6.528;2023-09-12T12:15:13;23.60;99.90
9849;DHT22;4963;51.444;6.528;2023-09-12T12:17:40;23.60;99.90
9849;DHT22;4963;51.444;6.528;2023-09-12T12:20:09;23.60;99.90
9849;DHT22;4963;51.444;6.528;2023-09-12T12:22:37;23.70;99.90
9849;DHT22;4963;51.444;6.528;2023-09-12T12:25:09;23.90;99.90
9849;DHT22;4963;51.444;6.528;2023-09-12T12:27:37;24.00;99.90
9849;DHT22;4963;51.444;6.528;2023-09-12T12:30:06;24.10;99.90
9849;DHT22;4963;51.444;6.528;2023-09-12T12:32:33;24.20;99.90
9849;DHT22;4963;51.444;6.528;2023-09-12T12:35:00;24.40;99.90
9849;DHT22;4963;51.444;6.528;2023-09-12T12:37:29;24.50;99.90
9849;DHT22;4963;51.444;6.528;2023-09-12T12:39:57;24.60;99.90
9849;DHT22;4963;51.444;6.528;2023-09-12T12:42:28;24.60;99.90
9849;DHT22;4963;51.444;6.528;2023-09-12T12:44:59;24.60;99.90
9849;DHT22;4963;51.444;6.528;2023-09-12T12:47:26;24.70;99.90
9849;DHT22;4963;51.444;6.528;2023-09-12T12:49:54;24.70;99.90
9849;DHT22;4963;51.444;6.528;2023-09-12T12:52:24;24.80;99.90
9849;DHT22;4963;51.444;6.528;2023-09-12T12:54:51;24.80;99.90
9849;DHT22;4963;51.444;6.528;2023-09-12T12:57:20;24.70;99.90
9849;DHT22;4963;51.444;6.528;2023-09-12T12:59:48;24.80;99.90
9849;DHT22;4963;51.444;6.528;2023-09-12T13:02:16;24.80;99.90
9849;DHT22;4963;51.444;6.528;2023-09-12T13:04:44;24.80;99.90
9849;DHT22;4963;51.444;6.528;2023-09-12T13:07:11;24.70;99.90
9849;DHT22;4963;51.444;6.528;2023-09-12T13:09:38;24.70;99.90
9849;DHT22;4963;51.444;6.528;2023-09-12T13:12:06;24.60;99.90
9849;DHT22;4963;51.444;6.528;2023-09-12T13:14:34;24.60;99.90
9849;DHT22;4963;51.444;6.528;2023-09-12T13:17:02;24.60;99.90
9849;DHT22;4963;51.444;6.528;2023-09-12T13:19:29;24.70;99.90
9849;DHT22;4963;51.444;6.528;2023-09-12T13:21:57;24.70;99.90
9849;DHT22;4963;51.444;6.528;2023-09-12T13:24:24;24.70;99.90
9849;DHT22;4963;51.444;6.528;2023-09-12T13:26:51;24.60;99.90
9849;DHT22;4963;51.444;6.528;2023-09-12T13:29:19;24.60;99.90
9849;DHT22;4963;51.444;6.528;2023-09-12T13:31:46;24.60;99.90
9849;DHT22;4963;51.444;6.528;2023-09-12T13:34:14;24.70;99.90
9849;DHT22;4963;51.444;6.528;2023-09-12T13:36:41;24.70;99.90
9849;DHT22;4963;51.444;6.528;2023-09-12T13:39:07;24.60;99.90
9849;DHT22;4963;51.444;6.528;2023-09-12T13:41:34;24.60;99.90
9849;DHT22;4963;51.444;6.528;2023-09-12T13:44:01;24.60;99.90
9849;DHT22;4963;51.444;6.528;2023-09-12T13:46:28;24.60;99.90
9849;DHT22;4963;51.444;6.528;2023-09-12T13:48:55;24.60;99.90
9849;DHT22;4963;51.444;6.528;2023-09-12T13:51:27;24.70;99.90
9849;DHT22;4963;51.444;6.528;2023-09-12T13:53:54;24.70;99.90
9849;DHT22;4963;51.444;6.528;2023-09-12T13:56:21;24.80;99.90
9849;DHT22;4963;51.444;6.528;2023-09-12T13:58:47;24.80;99.90
9849;DHT22;4963;51.444;6.528;2023-09-12T14:01:16;24.80;99.90
9849;DHT22;4963;51.444;6.528;2023-09-12T14:03:43;24.80;99.90
9849;DHT22;4963;51.444;6.528;2023-09-12T14:06:10;24.80;99.90
9849;DHT22;4963;51.444;6.528;2023-09-12T14:08:38;24.80;99.90
9849;DHT22;4963;51.444;6.528;2023-09-12T14:11:05;24.80;99.90
9849;DHT22;4963;51.444;6.528;2023-09-12T14:13:32;24.90;99.90
9849;DHT22;4963;51.444;6.528;2023-09-12T14:16:00;24.90;99.90
9849;DHT22;4963;51.444;6.528;2023-09-12T14:18:28;25.00;99.90
9849;DHT22;4963;51.444;6.528;2023-09-12T14:20:54;24.90;99.90
9849;DHT22;4963;51.444;6.528;2023-09-12T14:23:21;24.90;99.90
9849;DHT22;4963;51.444;6.528;2023-09-12T14:25:50;24.90;99.90
9849;DHT22;4963;51.444;6.528;2023-09-12T14:28:17;24.90;99.90
9849;DHT22;4963;51.444;6.528;2023-09-12T14:30:44;24.90;99.90
9849;DHT22;4963;51.444;6.528;2023-09-12T14:33:11;24.90;99.90
9849;DHT22;4963;51.444;6.528;2023-09-12T14:35:39;24.80;99.90
9849;DHT22;4963;51.444;6.528;2023-09-12T14:38:06;24.80;99.90
9849;DHT22;4963;51.444;6.528;2023-09-12T14:40:33;24.70;99.90
9849;DHT22;4963;51.444;6.528;2023-09-12T14:43:01;24.70;99.90
9849;DHT22;4963;51.444;6.528;2023-09-12T14:45:28;24.70;99.90
9849;DHT22;4963;51.444;6.528;2023-09-12T14:47:56;24.70;99.90
9849;DHT22;4963;51.444;6.528;2023-09-12T14:50:23;24.60;99.90
9849;DHT22;4963;51.444;6.528;2023-09-12T14:52:51;24.60;99.90
9849;DHT22;4963;51.444;6.528;2023-09-12T14:55:18;24.60;99.90
9849;DHT22;4963;51.444;6.528;2023-09-12T14:57:45;24.70;99.90
9849;DHT22;4963;51.444;6.528;2023-09-12T15:00:14;24.70;99.90
9849;DHT22;4963;51.444;6.528;2023-09-12T15:02:40;24.70;99.90
9849;DHT22;4963;51.444;6.528;2023-09-12T15:05:08;24.70;99.90
9849;DHT22;4963;51.444;6.528;2023-09-12T15:07:35;24.70;99.90
9849;DHT22;4963;51.444;6.528;2023-09-12T15:10:03;24.70;99.90
9849;DHT22;4963;51.444;6.528;2023-09-12T15:12:30;24.70;99.90
9849;DHT22;4963;51.444;6.528;2023-09-12T15:14:57;24.70;99.90
9849;DHT22;4963;51.444;6.528;2023-09-12T15:17:25;24.60;99.90
9849;DHT22;4963;51.444;6.528;2023-09-12T15:19:53;24.60;99.90
9849;DHT22;4963;51.444;6.528;2023-09-12T15:22:21;24.60;99.90
9849;DHT22;4963;51.444;6.528;2023-09-12T15:24:48;24.70;99.90
9849;DHT22;4963;51.444;6.528;2023-09-12T15:27:14;24.70;99.90
9849;DHT22;4963;51.444;6.528;2023-09-12T15:29:41;24.70;99.90
9849;DHT22;4963;51.444;6.528;2023-09-12T15:32:08;24.60;99.90
9849;DHT22;4963;51.444;6.528;2023-09-12T15:34:36;24.60;99.90
9849;DHT22;4963;51.444;6.528;2023-09-12T15:37:07;24.50;99.90
9849;DHT22;4963;51.444;6.528;2023-09-12T15:39:34;24.50;99.90
9849;DHT22;4963;51.444;6.528;2023-09-12T15:42:01;24.40;99.90
9849;DHT22;4963;51.444;6.528;2023-09-12T15:44:29;24.50;99.90
9849;DHT22;4963;51.444;6.528;2023-09-12T15:46:56;24.50;99.90
9849;DHT22;4963;51.444;6.528;2023-09-12T15:49:23;24.40;99.90
9849;DHT22;4963;51.444;6.528;2023-09-12T15:51:52;24.40;99.90
9849;DHT22;4963;51.444;6.528;2023-09-12T15:54:19;24.30;99.90
9849;DHT22;4963;51.444;6.528;2023-09-12T15:56:46;24.30;99.90
9849;DHT22;4963;51.444;6.528;2023-09-12T15:59:13;24.20;99.90
9849;DHT22;4963;51.444;6.528;2023-09-12T16:01:40;24.20;99.90
9849;DHT22;4963;51.444;6.528;2023-09-12T16:04:06;24.10;99.90
9849;DHT22;4963;51.444;6.528;2023-09-12T16:06:34;24.10;99.90
9849;DHT22;4963;51.444;6.528;2023-09-12T16:09:02;24.10;99.90